Time;durP1;ratioP1;P1;durP2;ratioP2;P2;SDS_P1;SDS_P2;PMS_P1;PMS_P2;Temp;Humidity;BMP_temperature;BMP_pressure;BME280_temperature;BME280_humidity;BME280_pressure;Samples;Min_cycle;Max_cycle;Signal;HPM_P1;HPM_P2
2023/02/12 00:00:02;;;;;;;;;;;-1.20;73.90;;;;;;5003213;28;86643;-37
2023/02/12 00:02:28;;;;;;;;;;;-1.20;73.90;;;;;;5002594;28;88238;-37
2023/02/12 00:04:53;;;;;;;;;;;-1.20;73.70;;;;;;5002321;28;89259;-37
2023/02/12 00:07:19;;;;;;;;;;;-1.20;73.80;;;;;;5001968;28;87955;-37
2023/02/12 00:09:44;;;;;;;;;;;-1.20;73.80;;;;;;5004895;28;89727;-37
2023/02/12 00:12:10;;;;;;;;;;;-1.20;73.80;;;;;;5002611;28;87041;-37
2023/02/12 00:14:36;;;;;;;;;;;-1.20;73.70;;;;;;5002755;28;88879;-37
2023/02/12 00:17:02;;;;;;;;;;;-1.20;73.90;;;;;;5002114;28;89138;-38
2023/02/12 00:19:28;;;;;;;;;;;-1.20;73.90;;;;;;5002697;28;87105;-37
2023/02/12 00:21:53;;;;;;;;;;;-1.20;73.90;;;;;;5002520;28;87693;-37
2023/02/12 00:24:19;;;;;;;;;;;-1.20;73.90;;;;;;5002757;28;87151;-37
2023/02/12 00:26:44;;;;;;;;;;;-1.20;73.70;;;;;;5002384;28;87238;-37
2023/02/12 00:29:10;;;;;;;;;;;-1.30;73.80;;;;;;5002233;28;87687;-37
2023/02/12 00:31:35;;;;;;;;;;;-1.30;73.80;;;;;;5004406;28;90223;-37
2023/02/12 00:34:01;;;;;;;;;;;-1.30;73.80;;;;;;5002446;28;88791;-37
2023/02/12 00:36:28;;;;;;;;;;;-1.30;73.80;;;;;;5002029;28;89359;-37
2023/02/12 00:38:54;;;;;;;;;;;-1.30;73.80;;;;;;5002212;28;87191;-37
2023/02/12 00:41:19;;;;;;;;;;;-1.30;73.80;;;;;;5002164;28;87367;-37
2023/02/12 00:43:46;;;;;;;;;;;-1.30;73.80;;;;;;5001807;28;89270;-37
2023/02/12 00:46:11;;;;;;;;;;;-1.30;73.80;;;;;;5002058;28;87038;-37
2023/02/12 00:48:37;;;;;;;;;;;-1.30;73.80;;;;;;5002729;28;88661;-38
2023/02/12 00:51:03;;;;;;;;;;;-1.30;73.80;;;;;;5002131;28;89291;-37
2023/02/12 00:53:29;;;;;;;;;;;-1.30;73.70;;;;;;5005023;28;86941;-37
2023/02/12 00:55:54;;;;;;;;;;;-1.30;73.60;;;;;;5001144;28;90532;-38
2023/02/12 00:58:20;;;;;;;;;;;-1.30;73.80;;;;;;5002190;28;87104;-37
2023/02/12 01:00:46;;;;;;;;;;;-1.30;73.80;;;;;;5001836;28;88649;-37
2023/02/12 01:03:11;;;;;;;;;;;-1.30;73.80;;;;;;5001485;28;89460;-37
2023/02/12 01:05:37;;;;;;;;;;;-1.30;73.80;;;;;;5001497;28;87188;-37
2023/02/12 01:08:02;;;;;;;;;;;-1.40;73.70;;;;;;5001921;28;88875;-37
2023/02/12 01:10:28;;;;;;;;;;;-1.30;73.80;;;;;;5001408;28;89258;-37
2023/02/12 01:12:54;;;;;;;;;;;-1.40;73.80;;;;;;5002628;28;87408;-37
2023/02/12 01:15:19;;;;;;;;;;;-1.40;73.70;;;;;;5006215;28;88050;-37
2023/02/12 01:17:45;;;;;;;;;;;-1.40;73.70;;;;;;5005335;28;87134;-37
2023/02/12 01:20:12;;;;;;;;;;;-1.40;73.70;;;;;;5004470;28;88627;-37
2023/02/12 01:22:38;;;;;;;;;;;-1.40;73.70;;;;;;5004872;28;90759;-37
2023/02/12 01:25:04;;;;;;;;;;;-1.40;73.80;;;;;;5005038;28;87169;-37
2023/02/12 01:27:29;;;;;;;;;;;-1.40;73.70;;;;;;5005462;28;87102;-38
2023/02/12 01:29:55;;;;;;;;;;;-1.40;73.70;;;;;;5004763;28;89290;-37
2023/02/12 01:32:21;;;;;;;;;;;-1.40;73.70;;;;;;5005026;28;87154;-37
2023/02/12 01:34:46;;;;;;;;;;;-1.40;73.70;;;;;;5005140;28;87519;-37
2023/02/12 01:37:11;;;;;;;;;;;-1.40;73.70;;;;;;5007969;28;87123;-37
2023/02/12 01:39:37;;;;;;;;;;;-1.40;73.70;;;;;;5005017;28;87191;-37
2023/02/12 01:42:03;;;;;;;;;;;-1.40;73.70;;;;;;5004618;28;90134;-37
2023/02/12 01:44:30;;;;;;;;;;;-1.40;73.70;;;;;;5004400;28;88121;-37
2023/02/12 01:46:56;;;;;;;;;;;-1.40;73.70;;;;;;5004940;28;89847;-37
2023/02/12 01:49:29;;;;;;;;;;;-1.40;73.80;;;;;;5004479;28;89619;-37
2023/02/12 01:51:57;;;;;;;;;;;-1.50;73.70;;;;;;5004933;28;87131;-37
2023/02/12 01:54:24;;;;;;;;;;;-1.50;73.80;;;;;;5004476;28;89170;-37
2023/02/12 01:56:50;;;;;;;;;;;-1.50;73.70;;;;;;5007282;28;89600;-37
2023/02/12 01:59:15;;;;;;;;;;;-1.50;73.70;;;;;;5004622;28;89058;-37
2023/02/12 02:01:41;;;;;;;;;;;-1.50;73.70;;;;;;5004585;28;88818;-38
2023/02/12 02:04:15;;;;;;;;;;;-1.50;73.70;;;;;;5005061;28;86924;-37
2023/02/12 02:06:44;;;;;;;;;;;-1.50;73.70;;;;;;5004249;28;88733;-37
2023/02/12 02:09:10;;;;;;;;;;;-1.50;73.70;;;;;;5003521;28;90558;-37
2023/02/12 02:14:32;;;;;;;;;;;-1.50;73.70;;;;;;5003627;28;86936;-37
2023/02/12 02:17:11;;;;;;;;;;;-1.50;73.70;;;;;;5004363;28;87821;-37
2023/02/12 02:19:43;;;;;;;;;;;-1.50;73.70;;;;;;5007242;28;87055;-37
2023/02/12 02:22:27;;;;;;;;;;;-1.50;73.70;;;;;;5003815;28;89422;-37
2023/02/12 02:25:10;;;;;;;;;;;-1.50;73.90;;;;;;5004632;28;87161;-37
2023/02/12 02:27:38;;;;;;;;;;;-1.50;73.70;;;;;;5005107;28;87375;-37
2023/02/12 02:30:22;;;;;;;;;;;-1.50;73.80;;;;;;5003608;28;89234;-37
2023/02/12 02:33:03;;;;;;;;;;;-1.50;73.70;;;;;;5004140;28;87068;-37
2023/02/12 02:35:35;;;;;;;;;;;-1.60;73.60;;;;;;5003570;28;88905;-37
2023/02/12 02:38:19;;;;;;;;;;;-1.60;73.70;;;;;;5003353;28;89683;-37
2023/02/12 02:40:54;;;;;;;;;;;-1.60;73.90;;;;;;5003927;28;87146;-37
2023/02/12 02:43:22;;;;;;;;;;;-1.60;73.80;;;;;;5006598;28;88587;-37
2023/02/12 02:45:51;;;;;;;;;;;-1.60;73.90;;;;;;5003933;28;87726;-37
2023/02/12 02:48:28;;;;;;;;;;;-1.60;73.90;;;;;;5003898;28;88701;-37
2023/02/12 02:50:56;;;;;;;;;;;-1.60;73.80;;;;;;5003599;28;89046;-37
2023/02/12 02:53:37;;;;;;;;;;;-1.60;73.80;;;;;;5004505;28;86267;-37
2023/02/12 02:56:05;;;;;;;;;;;-1.60;73.70;;;;;;5003749;28;88387;-37
2023/02/12 02:58:34;;;;;;;;;;;-1.60;73.90;;;;;;5003569;28;87857;-37
2023/02/12 03:01:20;;;;;;;;;;;-1.60;73.90;;;;;;5002933;28;88040;-37
2023/02/12 03:03:55;;;;;;;;;;;-1.60;73.80;;;;;;5003257;28;89537;-37
2023/02/12 03:06:24;;;;;;;;;;;-1.60;73.90;;;;;;5005704;28;89315;-37
2023/02/12 03:08:54;;;;;;;;;;;-1.60;73.90;;;;;;5003610;28;87737;-37
2023/02/12 03:11:32;;;;;;;;;;;-1.60;74.00;;;;;;5003288;28;88216;-37
2023/02/12 03:14:00;;;;;;;;;;;-1.60;74.00;;;;;;5003494;28;87068;-37
2023/02/12 03:16:40;;;;;;;;;;;-1.70;73.90;;;;;;5003929;28;87381;-37
2023/02/12 03:19:20;;;;;;;;;;;-1.70;74.00;;;;;;5003522;28;89130;-37
2023/02/12 03:21:48;;;;;;;;;;;-1.70;73.90;;;;;;5003455;28;87340;-37
2023/02/12 03:24:17;;;;;;;;;;;-1.70;73.80;;;;;;5003359;28;87363;-39
2023/02/12 03:26:49;;;;;;;;;;;-1.70;74.10;;;;;;5002397;28;90341;-37
2023/02/12 03:29:15;;;;;;;;;;;-1.70;74.00;;;;;;5006231;28;87156;-37
2023/02/12 03:31:40;;;;;;;;;;;-1.70;74.00;;;;;;5003222;28;87971;-37
2023/02/12 03:34:17;;;;;;;;;;;-1.70;74.10;;;;;;5003317;28;87054;-37
2023/02/12 03:36:51;;;;;;;;;;;-1.70;73.90;;;;;;5003269;28;88744;-37
2023/02/12 03:39:27;;;;;;;;;;;-1.70;74.10;;;;;;5002264;28;89342;-37
2023/02/12 03:42:00;;;;;;;;;;;-1.70;74.00;;;;;;5003015;28;87091;-37
2023/02/12 03:44:44;;;;;;;;;;;-1.70;74.10;;;;;;5003544;28;88846;-37
2023/02/12 03:47:24;;;;;;;;;;;-1.70;74.10;;;;;;5002974;28;87652;-37
2023/02/12 03:49:56;;;;;;;;;;;-1.70;74.10;;;;;;5003088;28;87026;-37
2023/02/12 03:52:21;;;;;;;;;;;-1.80;74.40;;;;;;5005025;28;88649;-37
2023/02/12 03:54:47;;;;;;;;;;;-1.80;74.30;;;;;;5002968;28;87063;-37
2023/02/12 03:57:14;;;;;;;;;;;-1.80;74.30;;;;;;5003022;28;88444;-37
2023/02/12 03:59:40;;;;;;;;;;;-1.80;74.30;;;;;;5002482;28;87940;-37
2023/02/12 04:02:05;;;;;;;;;;;-1.80;74.10;;;;;;5002559;28;87693;-37
2023/02/12 04:04:31;;;;;;;;;;;-1.80;74.10;;;;;;5003075;28;87621;-37
2023/02/12 04:06:57;;;;;;;;;;;-1.80;74.20;;;;;;5001955;28;89375;-37
2023/02/12 04:09:24;;;;;;;;;;;-1.80;74.20;;;;;;5003050;28;86347;-37
2023/02/12 04:11:49;;;;;;;;;;;-1.80;74.20;;;;;;5005430;28;87105;-37
2023/02/12 04:14:17;;;;;;;;;;;-1.80;74.20;;;;;;5002897;28;87193;-37
2023/02/12 04:16:43;;;;;;;;;;;-1.80;74.40;;;;;;5002131;28;87872;-37
2023/02/12 04:19:11;;;;;;;;;;;-1.80;74.20;;;;;;5002331;28;89345;-37
2023/02/12 04:21:52;;;;;;;;;;;-1.80;74.20;;;;;;5002253;28;87068;-37
2023/02/12 04:24:24;;;;;;;;;;;-1.80;74.20;;;;;;5002875;28;86910;-37
2023/02/12 04:26:52;;;;;;;;;;;-1.80;74.30;;;;;;5002377;28;88323;-37
2023/02/12 04:29:25;;;;;;;;;;;-1.90;74.30;;;;;;5002522;28;87116;-37
2023/02/12 04:31:53;;;;;;;;;;;-1.80;74.40;;;;;;5002912;28;87082;-37
2023/02/12 04:34:23;;;;;;;;;;;-1.80;74.30;;;;;;5005350;28;87751;-36
2023/02/12 04:36:52;;;;;;;;;;;-1.90;74.30;;;;;;5002272;28;87326;-37
2023/02/12 04:39:20;;;;;;;;;;;-1.90;74.30;;;;;;5001872;28;88369;-37
2023/02/12 04:41:46;;;;;;;;;;;-1.90;74.40;;;;;;5001505;28;88090;-37
2023/02/12 04:44:13;;;;;;;;;;;-1.80;74.40;;;;;;5002501;28;88272;-37
2023/02/12 04:46:39;;;;;;;;;;;-1.90;74.40;;;;;;5001929;28;89361;-37
2023/02/12 04:49:04;;;;;;;;;;;-1.90;74.30;;;;;;5002279;28;87271;-37
2023/02/12 04:51:30;;;;;;;;;;;-1.90;74.30;;;;;;5005743;28;88681;-37
2023/02/12 04:53:55;;;;;;;;;;;-1.90;74.40;;;;;;5005378;28;89701;-37
2023/02/12 04:56:20;;;;;;;;;;;-1.90;74.40;;;;;;5008306;28;87024;-37
2023/02/12 04:58:46;;;;;;;;;;;-1.90;74.40;;;;;;5005805;28;89011;-37
2023/02/12 05:01:12;;;;;;;;;;;-1.90;74.30;;;;;;5005521;28;87078;-37
2023/02/12 05:03:38;;;;;;;;;;;-1.90;74.40;;;;;;5005592;28;88719;-37
2023/02/12 05:06:04;;;;;;;;;;;-1.90;74.40;;;;;;5003439;28;90633;-37
2023/02/12 05:08:29;;;;;;;;;;;-1.90;74.40;;;;;;5004763;28;87055;-37
2023/02/12 05:10:55;;;;;;;;;;;-1.90;74.40;;;;;;5004271;28;88816;-37
2023/02/12 05:13:20;;;;;;;;;;;-1.90;74.50;;;;;;5004060;28;89413;-37
2023/02/12 05:15:46;;;;;;;;;;;-1.90;74.50;;;;;;5004720;28;87152;-37
2023/02/12 05:18:11;;;;;;;;;;;-1.90;74.50;;;;;;5006974;28;87786;-37
2023/02/12 05:20:37;;;;;;;;;;;-1.90;74.50;;;;;;5004120;28;87095;-37
2023/02/12 05:23:02;;;;;;;;;;;-1.90;74.50;;;;;;5004713;28;87786;-37
2023/02/12 05:25:28;;;;;;;;;;;-1.90;74.60;;;;;;5003699;28;89444;-37
2023/02/12 05:27:55;;;;;;;;;;;-1.90;74.60;;;;;;5004398;28;87214;-37
2023/02/12 05:30:21;;;;;;;;;;;-1.90;74.50;;;;;;5003861;28;88996;-37
2023/02/12 05:32:46;;;;;;;;;;;-1.90;74.60;;;;;;5004173;28;88274;-37
2023/02/12 05:35:12;;;;;;;;;;;-1.90;74.70;;;;;;5003974;28;87084;-37
2023/02/12 05:37:37;;;;;;;;;;;-1.90;74.60;;;;;;5003918;28;88793;-37
2023/02/12 05:40:04;;;;;;;;;;;-1.90;75.20;;;;;;5006149;28;89615;-37
2023/02/12 05:42:29;;;;;;;;;;;-1.90;74.60;;;;;;5004040;28;88704;-37
2023/02/12 05:44:55;;;;;;;;;;;-1.90;74.60;;;;;;5003538;28;89561;-37
2023/02/12 05:47:20;;;;;;;;;;;-2.00;74.60;;;;;;5004353;28;86412;-37
2023/02/12 05:49:46;;;;;;;;;;;-2.00;74.60;;;;;;5004129;28;87096;-37
2023/02/12 05:52:11;;;;;;;;;;;-1.90;74.60;;;;;;5003410;28;89610;-37
2023/02/12 05:54:36;;;;;;;;;;;-2.00;74.70;;;;;;5003217;28;88070;-37
2023/02/12 05:57:02;;;;;;;;;;;-2.00;74.80;;;;;;5003608;28;89856;-37
2023/02/12 05:59:28;;;;;;;;;;;-2.00;74.80;;;;;;5003392;28;89397;-37
2023/02/12 06:01:53;;;;;;;;;;;-2.00;74.70;;;;;;5006010;28;87201;-37
2023/02/12 06:04:20;;;;;;;;;;;-2.00;74.70;;;;;;5003270;28;88548;-37
2023/02/12 06:06:46;;;;;;;;;;;-2.00;74.70;;;;;;4962258;28;1181723;-37
2023/02/12 06:09:12;;;;;;;;;;;-2.00;74.80;;;;;;5004401;28;89136;-37
2023/02/12 06:11:38;;;;;;;;;;;-2.00;74.90;;;;;;5004452;28;88910;-38
2023/02/12 06:14:04;;;;;;;;;;;-2.00;74.80;;;;;;5004432;28;87563;-37
2023/02/12 06:16:31;;;;;;;;;;;-2.00;74.80;;;;;;5004439;28;89063;-37
2023/02/12 06:18:56;;;;;;;;;;;-2.00;74.80;;;;;;5003483;28;90441;-38
2023/02/12 06:21:23;;;;;;;;;;;-2.00;74.90;;;;;;5007155;28;87091;-37
2023/02/12 06:23:49;;;;;;;;;;;-2.00;74.90;;;;;;5003848;28;89474;-37
2023/02/12 06:26:14;;;;;;;;;;;-2.00;75.00;;;;;;5004306;28;87224;-37
2023/02/12 06:28:40;;;;;;;;;;;-2.00;75.00;;;;;;5004176;28;88662;-38
2023/02/12 06:31:15;;;;;;;;;;;-2.00;75.00;;;;;;5003903;28;89731;-37
2023/02/12 06:33:41;;;;;;;;;;;-2.00;75.10;;;;;;5004219;28;87008;-37
2023/02/12 06:36:06;;;;;;;;;;;-2.00;75.10;;;;;;5004941;28;87494;-37
2023/02/12 06:38:33;;;;;;;;;;;-2.00;75.10;;;;;;5003579;28;87749;-37
2023/02/12 06:41:00;;;;;;;;;;;-2.00;75.10;;;;;;5003841;28;87135;-37
2023/02/12 06:43:25;;;;;;;;;;;-2.00;75.10;;;;;;5006527;28;89059;-38
2023/02/12 06:45:51;;;;;;;;;;;-2.00;75.20;;;;;;5004136;28;87123;-37
2023/02/12 06:48:16;;;;;;;;;;;-2.00;75.20;;;;;;5003938;28;88627;-37
2023/02/12 06:50:42;;;;;;;;;;;-2.00;75.10;;;;;;5003658;28;89468;-38
2023/02/12 06:53:07;;;;;;;;;;;-2.00;75.10;;;;;;5004087;28;87003;-37
2023/02/12 06:55:33;;;;;;;;;;;-2.00;75.20;;;;;;5003626;28;89126;-37
2023/02/12 06:57:59;;;;;;;;;;;-2.00;75.20;;;;;;5003217;28;88404;-37
2023/02/12 07:00:24;;;;;;;;;;;-2.00;75.30;;;;;;5004427;28;86402;-37
2023/02/12 07:02:56;;;;;;;;;;;-2.00;75.20;;;;;;5003585;28;88527;-37
2023/02/12 07:05:22;;;;;;;;;;;-2.00;75.20;;;;;;5005841;28;89182;-37
2023/02/12 07:07:48;;;;;;;;;;;-2.00;75.20;;;;;;5002980;28;88747;-37
2023/02/12 07:10:13;;;;;;;;;;;-2.00;75.20;;;;;;5003338;28;89400;-37
2023/02/12 07:12:39;;;;;;;;;;;-2.00;75.20;;;;;;5002948;28;87145;-37
2023/02/12 07:15:04;;;;;;;;;;;-2.00;75.30;;;;;;5003524;28;89075;-37
2023/02/12 07:17:30;;;;;;;;;;;-2.00;75.30;;;;;;5003276;28;88041;-37
2023/02/12 07:19:56;;;;;;;;;;;-2.00;75.30;;;;;;5003652;28;87190;-37
2023/02/12 07:22:21;;;;;;;;;;;-2.00;75.40;;;;;;5003718;28;87546;-37
2023/02/12 07:24:47;;;;;;;;;;;-2.00;75.40;;;;;;5003687;28;86522;-37
2023/02/12 07:27:12;;;;;;;;;;;-2.00;75.30;;;;;;5006341;28;87033;-37
2023/02/12 07:29:38;;;;;;;;;;;-2.00;75.30;;;;;;5002966;28;89854;-37
2023/02/12 07:32:03;;;;;;;;;;;-2.00;75.30;;;;;;5002541;28;88128;-37
2023/02/12 07:34:29;;;;;;;;;;;-2.00;75.30;;;;;;5018825;28;90849;-38
2023/02/12 07:36:54;;;;;;;;;;;-2.00;75.30;;;;;;5003056;28;89404;-37
2023/02/12 07:39:20;;;;;;;;;;;-2.00;75.30;;;;;;5002707;28;87196;-37
2023/02/12 07:41:45;;;;;;;;;;;-2.00;75.30;;;;;;5002907;28;88686;-37
2023/02/12 07:44:11;;;;;;;;;;;-2.00;75.30;;;;;;5002643;28;89411;-37
2023/02/12 07:46:42;;;;;;;;;;;-2.00;75.30;;;;;;5003087;28;87004;-37
2023/02/12 07:49:11;;;;;;;;;;;-2.00;75.30;;;;;;5006089;28;87630;-38
2023/02/12 07:51:37;;;;;;;;;;;-2.00;75.30;;;;;;5002897;28;87089;-37
2023/02/12 07:54:02;;;;;;;;;;;-2.00;75.30;;;;;;5002652;28;88095;-37
2023/02/12 07:56:31;;;;;;;;;;;-2.00;75.30;;;;;;5001867;28;90489;-37
2023/02/12 07:58:57;;;;;;;;;;;-2.00;75.30;;;;;;5002880;28;87121;-37
2023/02/12 08:01:34;;;;;;;;;;;-2.00;75.40;;;;;;5003006;28;87429;-37
2023/02/12 08:04:01;;;;;;;;;;;-2.00;75.40;;;;;;5002689;28;88165;-37
2023/02/12 08:06:27;;;;;;;;;;;-2.00;75.30;;;;;;5002276;28;87255;-37
2023/02/12 08:08:53;;;;;;;;;;;-2.00;75.40;;;;;;5005219;28;87646;-38
2023/02/12 08:11:19;;;;;;;;;;;-2.00;75.50;;;;;;5002735;28;87120;-37
2023/02/12 08:13:45;;;;;;;;;;;-2.00;75.60;;;;;;5003338;28;87414;-37
2023/02/12 08:16:12;;;;;;;;;;;-2.00;75.50;;;;;;5002247;28;89158;-37
2023/02/12 08:18:37;;;;;;;;;;;-2.00;75.40;;;;;;5002544;28;87124;-37
2023/02/12 08:21:07;;;;;;;;;;;-2.00;75.50;;;;;;5001995;28;88905;-37
2023/02/12 08:23:33;;;;;;;;;;;-2.00;75.50;;;;;;5001967;28;89357;-38
2023/02/12 08:26:18;;;;;;;;;;;-2.00;75.60;;;;;;5002518;28;87026;-37
2023/02/12 08:28:47;;;;;;;;;;;-2.00;75.60;;;;;;5002903;28;87342;-37
2023/02/12 08:31:14;;;;;;;;;;;-2.00;75.60;;;;;;5005228;28;88062;-37
2023/02/12 08:33:40;;;;;;;;;;;-2.00;75.60;;;;;;5002184;28;89264;-37
2023/02/12 08:36:05;;;;;;;;;;;-2.00;75.60;;;;;;5001916;28;89311;-38
2023/02/12 08:38:32;;;;;;;;;;;-2.00;75.70;;;;;;5002781;28;86132;-37
2023/02/12 08:41:04;;;;;;;;;;;-2.00;75.60;;;;;;5002155;28;88211;-37
2023/02/12 08:43:30;;;;;;;;;;;-2.00;75.50;;;;;;5001959;28;89412;-37
2023/02/12 08:46:09;;;;;;;;;;;-2.00;75.60;;;;;;5001720;28;87915;-37
2023/02/12 08:48:35;;;;;;;;;;;-2.00;75.50;;;;;;5002199;28;89753;-37
2023/02/12 08:51:09;;;;;;;;;;;-2.00;75.60;;;;;;5001937;28;88511;-37
2023/02/12 08:53:35;;;;;;;;;;;-2.00;75.70;;;;;;5004946;28;87048;-37
2023/02/12 08:56:01;;;;;;;;;;;-2.00;75.60;;;;;;5001749;28;89324;-37
2023/02/12 08:58:26;;;;;;;;;;;-2.00;75.70;;;;;;5002467;28;87125;-37
2023/02/12 09:00:52;;;;;;;;;;;-2.00;75.70;;;;;;5001949;28;88772;-37
2023/02/12 09:03:17;;;;;;;;;;;-2.00;75.60;;;;;;5002256;28;88528;-37
2023/02/12 09:05:43;;;;;;;;;;;-2.00;75.70;;;;;;5001615;28;87112;-37
2023/02/12 09:08:08;;;;;;;;;;;-2.00;75.80;;;;;;5001858;28;88765;-38
2023/02/12 09:10:38;;;;;;;;;;;-2.00;75.80;;;;;;5001407;28;88955;-37
2023/02/12 09:13:05;;;;;;;;;;;-2.00;75.80;;;;;;5002085;28;87010;-37
2023/02/12 09:15:31;;;;;;;;;;;-2.00;75.80;;;;;;5004205;28;87831;-37
2023/02/12 09:17:56;;;;;;;;;;;-2.00;75.80;;;;;;5001766;28;87128;-37
2023/02/12 09:20:22;;;;;;;;;;;-2.00;75.90;;;;;;5001895;28;88767;-37
2023/02/12 09:22:47;;;;;;;;;;;-2.00;75.80;;;;;;5001717;28;87172;-38
2023/02/12 09:25:13;;;;;;;;;;;-2.00;75.80;;;;;;5001719;28;87138;-37
2023/02/12 09:27:38;;;;;;;;;;;-2.00;75.70;;;;;;5002465;28;87527;-37
2023/02/12 09:30:04;;;;;;;;;;;-2.00;75.90;;;;;;5001364;28;88500;-37
2023/02/12 09:32:30;;;;;;;;;;;-2.00;75.80;;;;;;5001656;28;87119;-37
2023/02/12 09:34:55;;;;;;;;;;;-2.00;75.90;;;;;;5000877;28;88134;-37
2023/02/12 09:37:20;;;;;;;;;;;-2.00;75.90;;;;;;5007343;28;89531;-37
2023/02/12 09:39:46;;;;;;;;;;;-2.00;75.80;;;;;;5004669;28;88652;-37
2023/02/12 09:42:23;;;;;;;;;;;-2.00;75.90;;;;;;5004630;28;88287;-37
2023/02/12 09:45:03;;;;;;;;;;;-2.00;75.90;;;;;;5004948;28;87241;-37
2023/02/12 09:47:31;;;;;;;;;;;-2.00;76.00;;;;;;5004987;28;88732;-37
2023/02/12 09:50:09;;;;;;;;;;;-2.00;76.00;;;;;;5004392;28;89531;-37
2023/02/12 09:52:35;;;;;;;;;;;-2.00;75.90;;;;;;5005246;28;86458;-37
2023/02/12 09:55:01;;;;;;;;;;;-2.00;76.20;;;;;;5005096;28;86937;-37
2023/02/12 09:57:34;;;;;;;;;;;-2.00;76.10;;;;;;5004274;28;88314;-37
2023/02/12 10:00:09;;;;;;;;;;;-2.00;76.00;;;;;;5007161;28;87972;-37
2023/02/12 10:02:36;;;;;;;;;;;-1.90;76.00;;;;;;5004330;28;89604;-37
2023/02/12 10:05:01;;;;;;;;;;;-2.00;76.20;;;;;;5004595;28;87118;-37
2023/02/12 10:07:35;;;;;;;;;;;-2.00;76.40;;;;;;5004415;28;87830;-37
2023/02/12 10:10:19;;;;;;;;;;;-2.00;76.20;;;;;;5004081;28;89860;-37
2023/02/12 10:12:44;;;;;;;;;;;-1.90;76.40;;;;;;5004370;28;87102;-37
2023/02/12 10:15:13;;;;;;;;;;;-1.90;76.00;;;;;;5004456;28;88602;-37
2023/02/12 10:17:47;;;;;;;;;;;-1.90;75.90;;;;;;5005007;28;87451;-37
2023/02/12 10:20:31;;;;;;;;;;;-1.90;76.00;;;;;;5007640;28;87007;-37
2023/02/12 10:23:15;;;;;;;;;;;-1.90;76.10;;;;;;5003662;28;90117;-37
2023/02/12 10:25:40;;;;;;;;;;;-1.90;76.20;;;;;;5003710;28;88164;-37
2023/02/12 10:28:08;;;;;;;;;;;-2.00;76.50;;;;;;5004378;28;89642;-37
2023/02/12 10:30:40;;;;;;;;;;;-1.90;76.40;;;;;;5003955;28;88018;-37
2023/02/12 10:33:10;;;;;;;;;;;-1.80;76.20;;;;;;5004219;28;87304;-37
2023/02/12 10:35:35;;;;;;;;;;;-1.90;76.40;;;;;;5004256;28;89331;-37
2023/02/12 10:38:06;;;;;;;;;;;-1.80;76.10;;;;;;5003490;28;89397;-37
2023/02/12 10:40:32;;;;;;;;;;;-1.80;76.00;;;;;;5004102;28;87162;-37
2023/02/12 10:42:59;;;;;;;;;;;-1.90;76.40;;;;;;5006791;28;88752;-37
2023/02/12 10:45:32;;;;;;;;;;;-1.80;76.30;;;;;;5004127;28;87068;-37
2023/02/12 10:48:03;;;;;;;;;;;-1.80;76.40;;;;;;5002636;28;88807;-37
2023/02/12 10:50:32;;;;;;;;;;;-1.80;76.10;;;;;;5002762;28;90784;-37
2023/02/12 10:52:59;;;;;;;;;;;-1.80;76.10;;;;;;5003710;28;87290;-37
2023/02/12 10:55:34;;;;;;;;;;;-1.70;76.00;;;;;;5003915;28;88682;-38
2023/02/12 10:58:01;;;;;;;;;;;-1.80;76.20;;;;;;5003498;28;88037;-38
2023/02/12 11:00:33;;;;;;;;;;;-1.80;76.60;;;;;;5003737;28;87165;-37
2023/02/12 11:03:00;;;;;;;;;;;-1.80;76.20;;;;;;5003587;28;88668;-37
2023/02/12 11:05:28;;;;;;;;;;;-1.80;76.20;;;;;;5006045;28;88054;-37
2023/02/12 11:07:54;;;;;;;;;;;-1.80;76.50;;;;;;5004000;28;88746;-37
2023/02/12 11:10:25;;;;;;;;;;;-1.70;76.10;;;;;;5003162;28;88298;-37
2023/02/12 11:12:52;;;;;;;;;;;-1.60;76.20;;;;;;5003654;28;86993;-37
2023/02/12 11:15:20;;;;;;;;;;;-1.70;76.30;;;;;;5003024;28;87953;-38
2023/02/12 11:17:54;;;;;;;;;;;-1.70;76.90;;;;;;5003027;28;89675;-37
2023/02/12 11:20:21;;;;;;;;;;;-1.60;76.40;;;;;;5003920;28;87038;-38
2023/02/12 11:22:56;;;;;;;;;;;-1.60;76.10;;;;;;5003408;28;87474;-37
2023/02/12 11:25:23;;;;;;;;;;;-1.60;76.50;;;;;;5002889;28;89517;-37
2023/02/12 11:28:07;;;;;;;;;;;-1.60;76.30;;;;;;5006240;28;87056;-37
2023/02/12 11:30:33;;;;;;;;;;;-1.60;76.80;;;;;;5003052;28;89672;-37
2023/02/12 11:33:17;;;;;;;;;;;-1.50;76.40;;;;;;5003954;28;86799;-37
2023/02/12 11:35:53;;;;;;;;;;;-1.60;76.10;;;;;;5003200;28;88292;-37
2023/02/12 11:38:23;;;;;;;;;;;-1.60;76.40;;;;;;5002511;28;89198;-37
2023/02/12 11:40:50;;;;;;;;;;;-1.60;76.20;;;;;;5002498;28;88057;-37
2023/02/12 11:43:16;;;;;;;;;;;-1.60;76.50;;;;;;5002926;28;90175;-37
2023/02/12 11:45:51;;;;;;;;;;;-1.50;76.20;;;;;;5002919;28;89475;-37
2023/02/12 11:48:22;;;;;;;;;;;-1.60;76.40;;;;;;5003011;28;87162;-37
2023/02/12 11:50:49;;;;;;;;;;;-1.50;76.40;;;;;;5005438;28;88764;-37
2023/02/12 11:53:23;;;;;;;;;;;-1.60;76.30;;;;;;5003048;28;87599;-37
2023/02/12 11:55:56;;;;;;;;;;;-1.60;76.60;;;;;;5003043;28;89003;-37
2023/02/12 11:58:23;;;;;;;;;;;-1.60;76.50;;;;;;5002823;28;87305;-38
2023/02/12 12:00:57;;;;;;;;;;;-1.50;76.70;;;;;;5002630;28;87149;-38
2023/02/12 12:03:43;;;;;;;;;;;-1.50;76.50;;;;;;5002485;28;88912;-38
2023/02/12 12:06:28;;;;;;;;;;;-1.50;76.60;;;;;;4979545;28;90301;-38
2023/02/12 12:08:57;;;;;;;;;;;-1.50;76.50;;;;;;5002535;28;87778;-37
2023/02/12 12:11:32;;;;;;;;;;;-1.50;76.80;;;;;;5002829;28;87578;-37
2023/02/12 12:14:02;;;;;;;;;;;-1.50;77.00;;;;;;5005062;28;89230;-38
2023/02/12 12:22:19;;;;;;;;;;;-1.50;76.90;;;;;;5002876;28;87073;-37
2023/02/12 12:25:05;;;;;;;;;;;-1.50;77.00;;;;;;5003338;28;87487;-37
2023/02/12 12:30:30;;;;;;;;;;;-1.50;77.20;;;;;;5002715;28;87043;-37
2023/02/12 12:32:57;;;;;;;;;;;-1.50;77.20;;;;;;5001776;28;89039;-37
2023/02/12 12:35:28;;;;;;;;;;;-1.50;77.20;;;;;;5004823;28;89666;-37
2023/02/12 12:37:57;;;;;;;;;;;-1.50;77.20;;;;;;5002450;28;89398;-37
2023/02/12 12:40:23;;;;;;;;;;;-1.50;77.60;;;;;;5001551;28;89415;-37
2023/02/12 12:42:57;;;;;;;;;;;-1.50;77.60;;;;;;5002521;28;87504;-37
2023/02/12 12:45:25;;;;;;;;;;;-1.50;77.40;;;;;;5002282;28;88769;-37
2023/02/12 12:47:51;;;;;;;;;;;-1.50;77.60;;;;;;5002099;28;87785;-38
2023/02/12 12:50:22;;;;;;;;;;;-1.50;77.50;;;;;;5002817;28;86388;-37
2023/02/12 12:52:57;;;;;;;;;;;-1.40;77.60;;;;;;5002152;28;88246;-37
2023/02/12 12:55:45;;;;;;;;;;;-1.40;77.90;;;;;;5001774;28;89403;-37
2023/02/12 12:58:43;;;;;;;;;;;-1.40;77.60;;;;;;4984698;28;88019;-37
2023/02/12 13:01:20;;;;;;;;;;;-1.50;77.90;;;;;;4978258;28;89212;-37
2023/02/12 13:03:51;;;;;;;;;;;-1.40;77.80;;;;;;5002520;28;87073;-37
2023/02/12 13:06:35;;;;;;;;;;;-1.50;77.80;;;;;;5001586;28;89014;-37
2023/02/12 13:09:05;;;;;;;;;;;-1.40;77.90;;;;;;5002035;28;88155;-37
2023/02/12 13:11:38;;;;;;;;;;;-1.40;77.90;;;;;;5003829;28;87148;-37
2023/02/12 13:14:15;;;;;;;;;;;-1.40;78.00;;;;;;5005298;28;88684;-37
2023/02/12 13:16:50;;;;;;;;;;;-1.40;78.10;;;;;;5005535;28;88478;-37
2023/02/12 13:19:15;;;;;;;;;;;-1.50;78.20;;;;;;5005698;28;87184;-37
2023/02/12 13:21:54;;;;;;;;;;;-1.40;78.70;;;;;;5007864;28;88694;-37
2023/02/12 13:24:24;;;;;;;;;;;-1.40;78.70;;;;;;5004585;28;88082;-37
2023/02/12 13:26:55;;;;;;;;;;;-1.50;78.70;;;;;;5005028;28;89432;-37
2023/02/12 13:29:29;;;;;;;;;;;-1.50;78.80;;;;;;5005122;28;89567;-37
2023/02/12 13:31:58;;;;;;;;;;;-1.40;78.70;;;;;;5005070;28;87624;-37
2023/02/12 13:34:27;;;;;;;;;;;-1.40;78.50;;;;;;5005350;28;87743;-37
2023/02/12 13:36:54;;;;;;;;;;;-1.40;78.40;;;;;;5004649;28;89553;-37
2023/02/12 13:39:34;;;;;;;;;;;-1.50;78.80;;;;;;5005041;28;87185;-37
2023/02/12 13:42:06;;;;;;;;;;;-1.50;78.90;;;;;;5005375;28;88620;-37
2023/02/12 13:44:39;;;;;;;;;;;-1.50;79.10;;;;;;5007587;28;89459;-37
2023/02/12 13:47:07;;;;;;;;;;;-1.40;79.00;;;;;;5005448;28;87059;-37
2023/02/12 13:49:45;;;;;;;;;;;-1.40;78.60;;;;;;5003828;28;91303;-37
2023/02/12 13:52:16;;;;;;;;;;;-1.40;78.70;;;;;;5004826;28;88001;-37
2023/02/12 13:54:42;;;;;;;;;;;-1.40;78.90;;;;;;5004898;28;88560;-37
2023/02/12 13:57:10;;;;;;;;;;;-1.30;78.80;;;;;;5004612;28;88040;-37
2023/02/12 13:59:36;;;;;;;;;;;-1.30;78.70;;;;;;5004659;28;87050;-37
2023/02/12 14:02:10;;;;;;;;;;;-1.40;78.80;;;;;;5004350;28;88924;-37
2023/02/12 14:04:46;;;;;;;;;;;-1.40;78.90;;;;;;5004420;28;89153;-37
2023/02/12 14:07:13;;;;;;;;;;;-1.30;78.70;;;;;;5007497;28;86377;-37
2023/02/12 14:09:41;;;;;;;;;;;-1.30;78.70;;;;;;5004548;28;88112;-38
2023/02/12 14:12:09;;;;;;;;;;;-1.30;78.70;;;;;;5004553;28;87137;-37
2023/02/12 14:14:42;;;;;;;;;;;-1.30;78.60;;;;;;5003816;28;88079;-37
2023/02/12 14:17:26;;;;;;;;;;;-1.30;78.70;;;;;;5004080;28;89319;-37
2023/02/12 14:19:52;;;;;;;;;;;-1.30;78.90;;;;;;5004762;28;87186;-37
2023/02/12 14:22:26;;;;;;;;;;;-1.40;79.20;;;;;;5004193;28;87012;-37
2023/02/12 14:24:53;;;;;;;;;;;-1.50;80.10;;;;;;5003962;28;88579;-37
2023/02/12 14:27:21;;;;;;;;;;;-1.50;80.10;;;;;;5004325;28;87176;-37
2023/02/12 14:30:05;;;;;;;;;;;-1.50;79.90;;;;;;5006824;28;88640;-37
2023/02/12 14:32:49;;;;;;;;;;;-1.50;80.30;;;;;;5004588;28;86390;-37
2023/02/12 14:35:34;;;;;;;;;;;-1.50;80.30;;;;;;5004307;28;88109;-37
2023/02/12 14:38:23;;;;;;;;;;;-1.50;80.40;;;;;;5003746;28;88446;-37